createdAt,value
2023-05-20T00:01:30.839Z,2.60
2023-05-20T00:03:01.256Z,2.30
2023-05-20T00:04:33.402Z,2.42
2023-05-20T00:05:54.992Z,2.47
2023-05-20T00:07:27.128Z,2.10
2023-05-20T00:09:01.935Z,2.55
2023-05-20T00:10:47.748Z,2.17
2023-05-20T00:12:14.392Z,2.13
2023-05-20T00:13:44.000Z,2.25
2023-05-20T00:15:27.525Z,1.83
2023-05-20T00:16:47.448Z,2.70
2023-05-20T00:18:15.536Z,2.75
2023-05-20T00:20:05.015Z,2.10
2023-05-20T00:21:47.053Z,2.20
2023-05-20T00:22:58.000Z,2.17
2023-05-20T00:24:16.330Z,2.38
2023-05-20T00:25:40.196Z,2.63
2023-05-20T00:27:12.144Z,2.33
2023-05-20T00:28:31.812Z,2.20
2023-05-20T00:29:54.379Z,2.30
2023-05-20T00:33:13.814Z,2.65
2023-05-20T00:34:43.858Z,2.88
2023-05-20T00:36:09.989Z,2.63
2023-05-20T00:38:02.276Z,2.60
2023-05-20T00:39:53.296Z,2.50
2023-05-20T00:41:22.945Z,2.58
2023-05-20T00:42:54.358Z,2.40
2023-05-20T00:44:38.346Z,2.83
2023-05-20T00:46:06.586Z,2.20
2023-05-20T00:49:28.363Z,2.30
2023-05-20T00:50:42.811Z,2.88
2023-05-20T00:52:14.668Z,2.20
2023-05-20T00:53:41.915Z,2.58
2023-05-20T00:55:13.768Z,2.35
2023-05-20T00:56:47.158Z,2.78
2023-05-20T00:58:46.139Z,2.70
2023-05-20T01:02:12.041Z,2.58
2023-05-20T01:04:01.368Z,2.97
2023-05-20T01:05:45.270Z,2.72
2023-05-20T01:07:10.057Z,2.83
2023-05-20T01:08:35.206Z,2.95
2023-05-20T01:10:00.004Z,3.45
2023-05-20T01:11:39.002Z,3.17
2023-05-20T01:13:06.392Z,3.20
2023-05-20T01:14:20.473Z,2.50
2023-05-20T01:15:33.036Z,2.75
2023-05-20T01:17:24.050Z,2.90
2023-05-20T01:18:49.817Z,2.80
2023-05-20T01:20:17.337Z,2.85
2023-05-20T01:21:38.310Z,3.00
2023-05-20T01:23:28.729Z,2.80
2023-05-20T01:25:16.428Z,2.72
2023-05-20T01:26:43.054Z,3.30
2023-05-20T01:28:10.016Z,3.15
2023-05-20T01:29:30.839Z,2.88
2023-05-20T01:31:01.129Z,2.97
2023-05-20T01:32:43.294Z,3.05
2023-05-20T01:34:12.800Z,3.20
2023-05-20T01:35:39.246Z,2.75
2023-05-20T01:37:18.953Z,2.85
2023-05-20T01:39:05.136Z,3.20
2023-05-20T01:40:21.215Z,3.10
2023-05-20T01:41:32.336Z,3.10
2023-05-20T01:42:49.126Z,3.10
2023-05-20T01:44:16.357Z,3.05
2023-05-20T01:45:32.423Z,2.80
2023-05-20T01:46:58.262Z,3.08
2023-05-20T01:48:32.863Z,3.13
2023-05-20T01:49:58.790Z,3.10
2023-05-20T01:51:21.539Z,3.00
2023-05-20T01:52:37.610Z,3.15
2023-05-20T01:54:05.662Z,2.80
2023-05-20T01:55:24.721Z,2.80
2023-05-20T01:56:37.621Z,3.45
2023-05-20T01:58:03.290Z,2.97
2023-05-20T01:59:20.287Z,2.97
2023-05-20T02:00:49.384Z,3.53
2023-05-20T02:02:08.717Z,3.38
2023-05-20T02:03:33.596Z,3.05
2023-05-20T02:05:02.082Z,3.50
2023-05-20T02:06:20.712Z,3.13
2023-05-20T02:07:37.383Z,3.58
2023-05-20T02:09:06.602Z,3.70
2023-05-20T02:10:40.661Z,3.10
2023-05-20T02:12:08.757Z,3.50
2023-05-20T02:13:32.478Z,3.05
2023-05-20T02:15:06.123Z,3.22
2023-05-20T02:16:42.118Z,3.60
2023-05-20T02:18:09.818Z,3.78
2023-05-20T02:19:26.820Z,3.38
2023-05-20T02:20:59.481Z,3.40
2023-05-20T02:22:37.004Z,3.55
2023-05-20T02:24:00.665Z,3.40
2023-05-20T02:25:32.158Z,3.63
2023-05-20T02:27:00.136Z,3.42
2023-05-20T02:28:20.972Z,3.13
2023-05-20T02:29:46.275Z,3.03
2023-05-20T02:31:16.144Z,3.33
2023-05-20T02:32:43.102Z,3.42
2023-05-20T02:34:28.344Z,3.60
2023-05-20T02:35:52.272Z,3.50
2023-05-20T02:37:23.381Z,3.58
2023-05-20T02:38:56.342Z,3.58
2023-05-20T02:40:26.802Z,3.95
2023-05-20T02:41:44.589Z,3.58
2023-05-20T02:43:12.267Z,3.40
2023-05-20T02:44:39.817Z,3.45
2023-05-20T02:46:20.620Z,3.95
2023-05-20T02:48:01.917Z,3.65
2023-05-20T02:49:21.663Z,3.67
2023-05-20T02:50:57.283Z,3.75
2023-05-20T02:52:47.332Z,3.67
2023-05-20T02:54:16.862Z,4.28
2023-05-20T02:56:08.341Z,3.90
2023-05-20T02:57:39.359Z,3.35
2023-05-20T02:58:56.330Z,3.47
2023-05-20T03:00:39.807Z,3.58
2023-05-20T03:02:00.176Z,3.78
2023-05-20T03:03:41.987Z,3.88
2023-05-20T03:05:29.594Z,3.65
2023-05-20T03:08:49.320Z,3.70
2023-05-20T03:10:18.490Z,3.08
2023-05-20T03:11:58.516Z,3.47
2023-05-20T03:13:46.088Z,3.40
2023-05-20T03:15:22.187Z,3.05
2023-05-20T03:16:44.522Z,3.53
2023-05-20T03:18:46.897Z,3.17
2023-05-20T03:24:56.194Z,3.20
2023-05-20T03:27:04.775Z,2.80
2023-05-20T03:30:46.888Z,3.28
2023-05-20T03:31:57.891Z,3.00
2023-05-20T03:33:05.254Z,3.58
2023-05-20T03:34:09.609Z,3.03
2023-05-20T03:35:13.739Z,3.50
2023-05-20T03:36:19.853Z,3.10
2023-05-20T03:37:24.044Z,3.30
2023-05-20T03:38:28.901Z,3.40
2023-05-20T03:39:32.903Z,3.40
2023-05-20T03:40:39.815Z,3.13
2023-05-20T03:42:51.384Z,2.83
2023-05-20T03:43:56.782Z,3.00
2023-05-20T03:45:01.745Z,3.22
2023-05-20T03:46:10.019Z,2.65
2023-05-20T03:47:16.703Z,3.47
2023-05-20T03:48:24.860Z,2.78
2023-05-20T03:49:28.659Z,3.03
2023-05-20T03:50:34.030Z,3.28
2023-05-20T03:51:38.668Z,2.95
2023-05-20T03:52:46.987Z,2.88
2023-05-20T03:53:51.431Z,3.65
2023-05-20T03:54:55.043Z,3.42
2023-05-20T03:56:01.724Z,2.85
2023-05-20T03:57:06.211Z,3.13
2023-05-20T03:58:09.526Z,2.63
2023-05-20T03:59:13.039Z,2.70
2023-05-20T04:00:17.264Z,2.95
2023-05-20T04:01:21.656Z,2.50
2023-05-20T04:02:25.055Z,3.00
2023-05-20T04:03:30.703Z,2.95
2023-05-20T04:04:33.827Z,2.80
2023-05-20T04:05:37.626Z,2.80
2023-05-20T04:06:48.903Z,2.88
2023-05-20T04:07:53.134Z,2.90
2023-05-20T04:08:59.495Z,3.08
2023-05-20T04:10:04.159Z,2.80
2023-05-20T04:11:08.049Z,2.63
2023-05-20T04:12:14.293Z,2.78
2023-05-20T04:13:18.056Z,3.10
2023-05-20T04:14:22.264Z,3.28
2023-05-20T04:15:25.607Z,2.70
2023-05-20T04:16:32.345Z,2.70
2023-05-20T04:17:42.941Z,2.65
2023-05-20T04:18:48.952Z,2.83
2023-05-20T04:19:54.345Z,2.42
2023-05-20T04:20:59.415Z,2.97
2023-05-20T04:22:02.628Z,3.08
2023-05-20T04:23:08.529Z,3.17
2023-05-20T04:24:11.950Z,2.40
2023-05-20T04:25:15.493Z,2.70
2023-05-20T04:26:19.187Z,2.75
2023-05-20T04:27:24.153Z,2.58
2023-05-20T04:28:28.975Z,2.40
2023-05-20T04:29:34.586Z,2.90
2023-05-20T04:30:38.419Z,2.65
2023-05-20T04:31:41.875Z,2.60
2023-05-20T04:32:45.173Z,2.85
2023-05-20T04:33:49.080Z,2.58
2023-05-20T04:34:56.399Z,2.53
2023-05-20T04:36:01.848Z,3.08
2023-05-20T04:37:12.853Z,2.80
2023-05-20T04:38:18.353Z,2.72
2023-05-20T04:39:22.140Z,2.88
2023-05-20T04:40:29.239Z,2.58
2023-05-20T04:41:35.990Z,3.22
2023-05-20T04:42:40.191Z,3.00
2023-05-20T04:43:44.760Z,2.80
2023-05-20T04:44:49.460Z,2.55
2023-05-20T04:45:55.977Z,2.90
2023-05-20T04:46:59.956Z,2.65
2023-05-20T04:48:03.437Z,2.70
2023-05-20T04:49:06.739Z,2.45
2023-05-20T04:50:11.933Z,2.80
2023-05-20T04:51:18.263Z,2.42
2023-05-20T04:52:21.379Z,2.53
2023-05-20T04:53:24.473Z,2.28
2023-05-20T04:54:27.537Z,2.85
2023-05-20T04:55:31.198Z,2.45
2023-05-20T04:56:34.865Z,2.53
2023-05-20T04:57:42.417Z,2.50
2023-05-20T04:58:46.549Z,2.78
2023-05-20T04:59:49.790Z,2.33
2023-05-20T05:00:53.362Z,2.28
2023-05-20T05:01:56.669Z,2.55
2023-05-20T05:03:00.333Z,2.40
2023-05-20T05:04:04.034Z,2.42
2023-05-20T05:05:07.980Z,2.45
2023-05-20T05:06:12.087Z,2.65
2023-05-20T05:07:15.097Z,2.20
2023-05-20T05:08:18.438Z,2.47
2023-05-20T05:09:26.737Z,2.78
2023-05-20T05:10:30.331Z,2.67
2023-05-20T05:11:33.473Z,2.83
2023-05-20T05:12:37.108Z,2.33
2023-05-20T05:13:40.321Z,2.72
2023-05-20T05:14:43.627Z,2.30
2023-05-20T05:15:47.902Z,2.45
2023-05-20T05:16:52.068Z,2.58
2023-05-20T05:17:57.877Z,2.97
2023-05-20T05:19:01.235Z,2.63
2023-05-20T05:20:09.045Z,2.80
2023-05-20T05:21:12.439Z,2.80
2023-05-20T05:22:15.717Z,2.85
2023-05-20T05:23:19.064Z,2.50
2023-05-20T05:24:22.180Z,2.42
2023-05-20T05:25:28.354Z,2.38
2023-05-20T05:26:31.554Z,2.72
2023-05-20T05:27:35.537Z,3.03
2023-05-20T05:28:46.996Z,2.33
2023-05-20T05:29:50.684Z,2.50
2023-05-20T05:30:57.710Z,2.30
2023-05-20T05:32:02.539Z,2.78
2023-05-20T05:33:06.104Z,2.70
2023-05-20T05:34:09.603Z,2.38
2023-05-20T05:35:12.912Z,3.10
2023-05-20T05:36:17.057Z,2.78
2023-05-20T05:37:21.575Z,2.55
2023-05-20T05:38:25.322Z,2.80
2023-05-20T05:39:28.469Z,2.72
2023-05-20T05:40:36.184Z,2.92
2023-05-20T05:41:39.786Z,2.72
2023-05-20T05:42:44.269Z,2.55
2023-05-20T05:43:47.535Z,2.78
2023-05-20T05:44:52.373Z,2.20
2023-05-20T05:45:56.782Z,2.92
2023-05-20T05:47:01.770Z,2.80
2023-05-20T05:48:05.026Z,2.40
2023-05-20T05:49:08.617Z,2.60
2023-05-20T05:50:11.885Z,2.50
2023-05-20T05:51:15.867Z,2.58
2023-05-20T05:52:19.312Z,2.60
2023-05-20T05:53:28.526Z,2.55
2023-05-20T05:54:31.568Z,2.83
2023-05-20T05:55:35.064Z,3.03
2023-05-20T05:56:38.355Z,2.60
2023-05-20T05:57:41.956Z,3.17
2023-05-20T05:58:46.099Z,1.92
2023-05-20T05:59:49.327Z,2.47
2023-05-20T06:00:53.482Z,2.33
2023-05-20T06:01:59.034Z,2.50
2023-05-20T06:03:02.524Z,2.58
2023-05-20T06:04:09.684Z,2.15
2023-05-20T06:05:12.781Z,2.58
2023-05-20T06:06:15.904Z,2.45
2023-05-20T06:07:19.213Z,2.63
2023-05-20T06:08:23.241Z,2.88
2023-05-20T06:09:26.314Z,2.33
2023-05-20T06:10:29.690Z,2.45
2023-05-20T06:11:32.929Z,2.60
2023-05-20T06:12:36.500Z,2.45
2023-05-20T06:13:39.828Z,2.40
2023-05-20T06:14:43.011Z,2.47
2023-05-20T06:15:46.599Z,2.63
2023-05-20T06:16:49.925Z,2.58
2023-05-20T06:17:54.153Z,2.53
2023-05-20T06:18:57.862Z,2.45
2023-05-20T06:20:01.280Z,2.33
2023-05-20T06:21:07.034Z,2.70
2023-05-20T06:22:10.332Z,2.30
2023-05-20T06:23:13.780Z,2.17
2023-05-20T06:24:31.506Z,2.50
2023-05-20T06:25:34.975Z,2.30
2023-05-20T06:26:38.376Z,2.40
2023-05-20T06:27:43.441Z,2.50
2023-05-20T06:28:53.614Z,2.38
2023-05-20T06:29:56.973Z,2.40
2023-05-20T06:31:00.370Z,2.53
2023-05-20T06:32:09.913Z,2.53
2023-05-20T06:33:13.342Z,2.42
2023-05-20T06:34:16.841Z,2.65
2023-05-20T06:35:19.948Z,2.65
2023-05-20T06:36:23.356Z,2.35
2023-05-20T06:37:26.402Z,2.58
2023-05-20T06:38:30.089Z,2.60
2023-05-20T06:39:33.409Z,2.65
2023-05-20T06:40:37.027Z,2.25
2023-05-20T06:41:40.728Z,2.42
2023-05-20T06:42:46.299Z,2.10
2023-05-20T06:43:51.194Z,2.38
2023-05-20T06:45:14.345Z,2.47
2023-05-20T06:46:20.057Z,2.33
2023-05-20T06:47:30.060Z,2.45
2023-05-20T06:48:33.190Z,2.60
2023-05-20T06:49:37.258Z,2.22
2023-05-20T06:50:41.309Z,2.50
2023-05-20T06:51:44.596Z,2.72
2023-05-20T06:52:47.886Z,2.40
2023-05-20T06:53:52.480Z,2.50
2023-05-20T06:54:56.550Z,2.30
2023-05-20T06:56:00.485Z,2.38
2023-05-20T06:57:03.690Z,2.65
2023-05-20T06:58:07.013Z,2.33
2023-05-20T06:59:10.607Z,2.20
2023-05-20T07:00:15.035Z,2.47
2023-05-20T07:01:18.786Z,2.30
2023-05-20T07:02:23.966Z,2.03
2023-05-20T07:03:27.162Z,2.40
2023-05-20T07:04:30.671Z,2.60
2023-05-20T07:05:34.723Z,2.70
2023-05-20T07:06:38.187Z,2.40
2023-05-20T07:07:41.524Z,2.20
2023-05-20T07:08:45.694Z,1.83
2023-05-20T07:09:49.325Z,2.33
2023-05-20T07:10:52.556Z,2.30
2023-05-20T07:11:57.502Z,2.47
2023-05-20T07:13:00.874Z,2.80
2023-05-20T07:14:03.974Z,2.22
2023-05-20T07:15:08.634Z,2.42
2023-05-20T07:16:11.832Z,2.25
2023-05-20T07:17:19.131Z,2.42
2023-05-20T07:18:22.810Z,2.10
2023-05-20T07:19:30.625Z,2.78
2023-05-20T07:20:54.210Z,2.30
2023-05-20T07:22:13.133Z,2.20
2023-05-20T07:23:32.846Z,2.42
2023-05-20T07:24:36.810Z,2.22
2023-05-20T07:25:41.188Z,2.35
2023-05-20T07:26:44.681Z,1.95
2023-05-20T07:27:48.111Z,2.38
2023-05-20T07:28:52.328Z,2.22
2023-05-20T07:29:55.700Z,2.28
2023-05-20T07:31:00.641Z,2.20
2023-05-20T07:32:06.262Z,2.10
2023-05-20T07:33:11.568Z,2.05
2023-05-20T07:34:14.655Z,2.60
2023-05-20T07:35:18.154Z,2.20
2023-05-20T07:36:21.683Z,2.42
2023-05-20T07:37:26.984Z,2.72
2023-05-20T07:38:31.397Z,2.50
2023-05-20T07:40:42.560Z,2.30
2023-05-20T07:41:46.330Z,1.77
2023-05-20T07:42:49.660Z,2.05
2023-05-20T07:43:53.001Z,2.33
2023-05-20T07:44:56.090Z,2.08
2023-05-20T07:45:59.382Z,2.55
2023-05-20T07:47:03.036Z,2.13
2023-05-20T07:48:09.104Z,2.50
2023-05-20T07:49:12.543Z,2.40
2023-05-20T07:50:16.401Z,2.72
2023-05-20T07:51:19.503Z,2.17
2023-05-20T07:52:22.900Z,2.90
2023-05-20T07:53:26.962Z,2.40
2023-05-20T07:54:31.439Z,2.88
2023-05-20T07:55:37.253Z,2.45
2023-05-20T07:56:41.609Z,2.55
2023-05-20T07:57:46.477Z,2.20
2023-05-20T07:58:55.822Z,2.55
2023-05-20T08:00:00.736Z,2.40
2023-05-20T08:01:04.323Z,2.30
2023-05-20T08:02:09.261Z,2.28
2023-05-20T08:03:20.632Z,2.33
2023-05-20T08:05:54.155Z,2.38
2023-05-20T08:06:58.307Z,2.20
2023-05-20T08:08:15.575Z,2.72
2023-05-20T08:09:34.964Z,2.28
2023-05-20T08:10:38.140Z,2.72
2023-05-20T08:11:41.463Z,2.33
2023-05-20T08:12:44.646Z,2.08
2023-05-20T08:13:49.016Z,2.47
2023-05-20T08:14:54.784Z,2.38
2023-05-20T08:15:58.072Z,2.42
2023-05-20T08:17:01.892Z,2.25
2023-05-20T08:18:05.278Z,2.85
2023-05-20T08:19:08.413Z,2.33
2023-05-20T08:20:13.160Z,2.00
2023-05-20T08:21:16.407Z,1.92
2023-05-20T08:22:20.114Z,1.80
2023-05-20T08:23:23.268Z,2.65
2023-05-20T08:24:26.728Z,2.50
2023-05-20T08:25:30.989Z,2.30
2023-05-20T08:26:34.508Z,2.22
2023-05-20T08:27:37.917Z,2.50
2023-05-20T08:28:42.277Z,2.28
2023-05-20T08:29:45.746Z,2.30
2023-05-20T08:30:49.321Z,1.95
2023-05-20T08:31:52.652Z,2.22
2023-05-20T08:32:57.008Z,2.60
2023-05-20T08:34:01.826Z,2.08
2023-05-20T08:35:05.631Z,2.40
2023-05-20T08:36:08.721Z,2.10
2023-05-20T08:37:12.176Z,2.35
2023-05-20T08:38:15.674Z,2.30
2023-05-20T08:39:18.979Z,2.00
2023-05-20T08:40:23.510Z,2.35
2023-05-20T08:41:27.006Z,2.15
2023-05-20T08:42:30.384Z,2.20
2023-05-20T08:43:33.828Z,2.47
2023-05-20T08:44:37.619Z,2.50
2023-05-20T08:45:40.842Z,1.92
2023-05-20T08:46:48.784Z,2.25
2023-05-20T08:47:52.493Z,1.92
2023-05-20T08:48:55.692Z,2.35
2023-05-20T08:49:58.760Z,2.63
2023-05-20T08:51:03.988Z,2.35
2023-05-20T08:52:08.827Z,2.35
2023-05-20T08:53:11.808Z,2.35
2023-05-20T08:54:17.110Z,2.17
2023-05-20T08:55:44.023Z,2.05
2023-05-20T08:56:47.075Z,2.47
2023-05-20T08:57:51.622Z,2.53
2023-05-20T08:58:55.145Z,2.22
2023-05-20T08:59:59.654Z,2.50
2023-05-20T09:01:03.351Z,2.25
2023-05-20T09:02:06.575Z,2.50
2023-05-20T09:03:10.348Z,2.08
2023-05-20T09:04:13.194Z,2.10
2023-05-20T09:05:16.406Z,2.15
2023-05-20T09:06:22.572Z,2.08
2023-05-20T09:07:29.306Z,2.53
2023-05-20T09:08:33.496Z,2.15
2023-05-20T09:09:36.565Z,2.63
2023-05-20T09:10:40.900Z,2.13
2023-05-20T09:11:44.416Z,2.08
2023-05-20T09:12:47.202Z,2.30
2023-05-20T09:13:51.599Z,2.50
2023-05-20T09:14:54.436Z,2.55
2023-05-20T09:15:58.020Z,2.22
2023-05-20T09:17:00.901Z,2.25
2023-05-20T09:18:05.855Z,2.00
2023-05-20T09:19:10.136Z,2.17
2023-05-20T09:20:14.342Z,1.88
2023-05-20T09:21:17.256Z,2.28
2023-05-20T09:22:27.881Z,2.63
2023-05-20T09:23:31.625Z,2.20
2023-05-20T09:24:34.876Z,2.20
2023-05-20T09:25:38.136Z,2.00
2023-05-20T09:26:41.125Z,2.78
2023-05-20T09:27:44.016Z,2.47
2023-05-20T09:28:47.324Z,2.22
2023-05-20T09:29:50.758Z,2.42
2023-05-20T09:31:00.318Z,2.40
2023-05-20T09:32:04.120Z,2.30
2023-05-20T09:33:09.522Z,1.80
2023-05-20T09:34:12.474Z,2.38
2023-05-20T09:35:16.697Z,2.25
2023-05-20T09:36:21.757Z,2.03
2023-05-20T09:37:26.135Z,2.05
2023-05-20T09:38:35.701Z,2.30
2023-05-20T09:40:04.390Z,1.98
2023-05-20T09:41:10.873Z,2.17
2023-05-20T09:42:22.890Z,1.92
2023-05-20T09:43:25.929Z,2.28
2023-05-20T09:44:30.256Z,1.73
2023-05-20T09:45:36.100Z,2.47
2023-05-20T09:46:41.492Z,2.33
2023-05-20T09:47:45.427Z,1.98
2023-05-20T09:48:48.825Z,1.95
2023-05-20T09:49:53.922Z,2.17
2023-05-20T09:50:58.083Z,2.20
2023-05-20T09:52:02.757Z,2.38
2023-05-20T09:53:06.859Z,2.45
2023-05-20T09:54:12.724Z,2.40
2023-05-20T09:55:17.923Z,1.92
2023-05-20T09:56:22.325Z,2.30
2023-05-20T09:57:26.190Z,2.05
2023-05-20T09:58:31.738Z,2.10
2023-05-20T09:59:37.809Z,2.13
2023-05-20T10:00:41.107Z,2.30
2023-05-20T10:01:46.185Z,2.15
2023-05-20T10:02:51.892Z,2.13
2023-05-20T10:03:55.058Z,2.00
2023-05-20T10:05:01.687Z,2.22
2023-05-20T10:06:24.477Z,1.95
2023-05-20T10:07:42.192Z,1.92
2023-05-20T10:09:04.489Z,1.98
2023-05-20T10:10:19.142Z,1.98
2023-05-20T10:11:38.949Z,2.00
2023-05-20T10:12:50.781Z,1.98
2023-05-20T10:14:07.711Z,1.83
2023-05-20T10:15:47.912Z,2.20
2023-05-20T10:17:25.633Z,1.95
2023-05-20T10:18:34.396Z,2.00
2023-05-20T10:19:37.482Z,2.10
2023-05-20T10:20:51.136Z,2.10
2023-05-20T10:22:05.655Z,2.25
2023-05-20T10:23:08.511Z,2.05
2023-05-20T10:24:12.024Z,1.90
2023-05-20T10:25:27.761Z,1.83
2023-05-20T10:26:41.613Z,2.55
2023-05-20T10:27:46.293Z,2.05
2023-05-20T10:28:49.917Z,2.33
2023-05-20T10:29:53.663Z,2.03
2023-05-20T10:30:57.066Z,1.95
2023-05-20T10:32:00.005Z,2.30
2023-05-20T10:33:07.355Z,2.35
2023-05-20T10:34:20.176Z,1.80
2023-05-20T10:35:27.913Z,2.03
2023-05-20T10:36:32.401Z,2.00
2023-05-20T10:37:43.478Z,2.20
2023-05-20T10:38:54.337Z,1.83
2023-05-20T10:40:16.200Z,1.98
2023-05-20T10:41:22.122Z,2.00
2023-05-20T10:42:30.842Z,2.00
2023-05-20T10:43:33.753Z,2.15
2023-05-20T10:44:46.795Z,1.98
2023-05-20T10:45:51.701Z,2.35
2023-05-20T10:48:20.489Z,2.10
2023-05-20T10:49:27.089Z,1.95
2023-05-20T10:50:36.449Z,1.90
2023-05-20T10:51:39.892Z,1.83
2023-05-20T10:52:43.145Z,1.98
2023-05-20T10:53:46.952Z,1.85
2023-05-20T10:54:58.112Z,2.05
2023-05-20T10:56:01.355Z,2.10
2023-05-20T10:57:09.526Z,2.15
2023-05-20T10:58:12.718Z,1.70
2023-05-20T10:59:15.645Z,2.05
2023-05-20T11:00:18.643Z,2.08
2023-05-20T11:01:26.998Z,2.10
2023-05-20T11:02:30.710Z,1.90
2023-05-20T11:03:35.613Z,1.80
2023-05-20T11:04:39.698Z,1.85
2023-05-20T11:05:42.591Z,1.92
2023-05-20T11:06:54.420Z,1.90
2023-05-20T11:08:13.752Z,1.95
2023-05-20T11:09:27.518Z,2.10
2023-05-20T11:10:30.552Z,1.73
2023-05-20T11:11:33.509Z,2.70
2023-05-20T11:12:36.678Z,2.38
2023-05-20T11:13:39.905Z,1.88
2023-05-20T11:14:42.895Z,2.17
2023-05-20T11:15:45.860Z,2.13
2023-05-20T11:16:53.681Z,1.92
2023-05-20T11:18:02.730Z,1.55
2023-05-20T11:19:08.862Z,1.95
2023-05-20T11:20:14.725Z,1.80
2023-05-20T11:21:18.541Z,1.70
2023-05-20T11:22:22.040Z,1.75
2023-05-20T11:23:28.124Z,2.15
2023-05-20T11:24:31.100Z,2.10
2023-05-20T11:25:34.018Z,1.80
2023-05-20T11:26:37.740Z,2.05
2023-05-20T11:27:40.842Z,2.08
2023-05-20T11:28:43.813Z,1.67
2023-05-20T11:29:50.887Z,1.85
2023-05-20T11:30:54.295Z,2.00
2023-05-20T11:31:57.407Z,1.67
2023-05-20T11:33:01.810Z,2.15
2023-05-20T11:34:04.846Z,1.98
2023-05-20T11:35:08.692Z,2.25
2023-05-20T11:36:23.907Z,1.92
2023-05-20T11:37:30.303Z,1.67
2023-05-20T11:38:33.107Z,1.55
2023-05-20T11:39:36.125Z,1.95
2023-05-20T11:40:50.647Z,2.13
2023-05-20T11:41:54.547Z,1.80
2023-05-20T11:42:59.095Z,1.98
2023-05-20T11:44:02.135Z,1.90
2023-05-20T11:45:05.353Z,1.65
2023-05-20T11:46:08.483Z,1.90
2023-05-20T11:47:11.298Z,1.85
2023-05-20T11:48:15.973Z,2.17
2023-05-20T11:49:18.918Z,2.05
2023-05-20T11:50:22.549Z,2.20
2023-05-20T11:51:28.285Z,1.70
2023-05-20T11:52:34.950Z,2.47
2023-05-20T11:53:41.723Z,2.00
2023-05-20T11:54:44.802Z,1.90
2023-05-20T11:55:58.007Z,2.05
2023-05-20T11:57:01.300Z,1.77
2023-05-20T11:58:04.495Z,2.00
2023-05-20T11:59:10.273Z,1.85
2023-05-20T12:00:13.458Z,1.52
2023-05-20T12:01:22.430Z,2.08
2023-05-20T12:02:26.330Z,1.88
2023-05-20T12:03:29.541Z,2.05
2023-05-20T12:04:32.651Z,1.98
2023-05-20T12:05:36.158Z,2.03
2023-05-20T12:06:38.989Z,1.98
2023-05-20T12:07:42.216Z,1.85
2023-05-20T12:08:45.218Z,2.00
2023-05-20T12:09:48.317Z,1.65
2023-05-20T12:10:51.226Z,1.92
2023-05-20T12:11:56.159Z,1.88
2023-05-20T12:12:59.435Z,1.90
2023-05-20T12:14:05.859Z,2.22
2023-05-20T12:15:09.136Z,2.15
2023-05-20T12:16:12.190Z,2.40
2023-05-20T12:17:15.095Z,2.20
2023-05-20T12:18:18.044Z,2.10
2023-05-20T12:19:21.375Z,2.00
2023-05-20T12:20:25.420Z,2.25
2023-05-20T12:21:31.804Z,2.30
2023-05-20T12:22:35.762Z,2.03
2023-05-20T12:23:39.849Z,2.25
2023-05-20T12:24:42.718Z,2.20
2023-05-20T12:25:47.549Z,2.17
2023-05-20T12:26:53.579Z,1.73
2023-05-20T12:27:56.684Z,2.35
2023-05-20T12:28:59.628Z,1.85
2023-05-20T12:30:10.104Z,2.15
2023-05-20T12:31:13.154Z,2.42
2023-05-20T12:32:16.192Z,2.00
2023-05-20T12:33:20.916Z,2.15
2023-05-20T12:34:23.772Z,2.13
2023-05-20T12:35:40.969Z,1.80
2023-05-20T12:36:43.879Z,2.30
2023-05-20T12:37:46.894Z,2.15
2023-05-20T12:38:49.835Z,1.80
2023-05-20T12:39:52.745Z,1.75
2023-05-20T12:40:55.711Z,2.35
2023-05-20T12:41:58.632Z,2.03
2023-05-20T12:43:03.039Z,1.88
2023-05-20T12:44:06.503Z,2.53
2023-05-20T12:45:10.487Z,2.30
2023-05-20T12:46:13.436Z,2.45
2023-05-20T12:47:16.508Z,2.10
2023-05-20T12:48:19.455Z,2.05
2023-05-20T12:49:22.384Z,2.22
2023-05-20T12:50:26.155Z,1.95
2023-05-20T12:51:29.019Z,2.40
2023-05-20T12:52:32.063Z,2.13
2023-05-20T12:53:35.180Z,2.15
2023-05-20T12:54:38.147Z,2.13
2023-05-20T12:55:41.077Z,1.85
2023-05-20T12:56:47.689Z,2.22
2023-05-20T12:57:50.831Z,2.38
2023-05-20T12:58:53.903Z,2.30
2023-05-20T12:59:56.902Z,2.50
2023-05-20T13:00:59.844Z,2.10
2023-05-20T13:02:02.999Z,2.17
2023-05-20T13:03:06.414Z,2.45
2023-05-20T13:04:09.436Z,2.35
2023-05-20T13:05:14.197Z,2.15
2023-05-20T13:06:17.065Z,2.42
2023-05-20T13:07:20.082Z,2.53
2023-05-20T13:08:22.930Z,2.47
2023-05-20T13:09:26.046Z,2.30
2023-05-20T13:10:29.399Z,2.70
2023-05-20T13:11:32.356Z,2.78
2023-05-20T13:12:35.557Z,2.63
2023-05-20T13:13:38.566Z,2.53
2023-05-20T13:14:41.869Z,2.45
2023-05-20T13:15:45.136Z,2.25
2023-05-20T13:16:50.465Z,2.38
2023-05-20T13:17:54.628Z,2.10
2023-05-20T13:18:58.005Z,2.30
2023-05-20T13:20:00.998Z,2.45
2023-05-20T13:21:04.101Z,1.90
2023-05-20T13:22:07.166Z,2.33
2023-05-20T13:23:10.149Z,2.45
2023-05-20T13:24:13.648Z,2.17
2023-05-20T13:25:16.641Z,2.30
2023-05-20T13:26:19.565Z,2.05
2023-05-20T13:27:22.472Z,2.10
2023-05-20T13:28:25.752Z,2.28
2023-05-20T13:29:28.704Z,2.17
2023-05-20T13:30:32.897Z,2.40
2023-05-20T13:31:36.360Z,2.33
2023-05-20T13:32:39.583Z,2.00
2023-05-20T13:33:42.816Z,2.17
2023-05-20T13:34:46.094Z,1.83
2023-05-20T13:35:50.653Z,2.08
2023-05-20T13:36:53.684Z,2.03
2023-05-20T13:37:56.585Z,2.28
2023-05-20T13:38:59.608Z,2.22
2023-05-20T13:40:02.655Z,2.33
2023-05-20T13:41:08.088Z,2.35
2023-05-20T13:42:11.000Z,2.33
2023-05-20T13:43:14.035Z,2.50
2023-05-20T13:44:17.011Z,2.40
2023-05-20T13:45:20.377Z,2.13
2023-05-20T13:46:23.501Z,2.30
2023-05-20T13:47:26.925Z,1.98
2023-05-20T13:48:29.891Z,2.55
2023-05-20T13:49:32.847Z,2.22
2023-05-20T13:50:36.140Z,2.38
2023-05-20T13:51:39.538Z,2.17
2023-05-20T13:52:42.335Z,2.00
2023-05-20T13:53:45.416Z,2.10
2023-05-20T13:54:49.014Z,1.98
2023-05-20T13:55:52.048Z,2.35
2023-05-20T13:56:55.133Z,2.00
2023-05-20T13:57:58.066Z,1.60
2023-05-20T13:59:01.365Z,2.13
2023-05-20T14:00:05.451Z,2.10
2023-05-20T14:01:12.857Z,2.42
2023-05-20T14:02:16.014Z,2.00
2023-05-20T14:03:19.108Z,2.28
2023-05-20T14:04:22.558Z,2.42
2023-05-20T14:05:25.496Z,1.95
2023-05-20T14:06:29.633Z,2.53
2023-05-20T14:07:32.660Z,2.15
2023-05-20T14:08:35.926Z,2.20
2023-05-20T14:09:39.402Z,2.58
2023-05-20T14:10:42.308Z,2.35
2023-05-20T14:11:45.147Z,1.90
2023-05-20T14:12:48.422Z,1.90
2023-05-20T14:13:51.841Z,2.17
2023-05-20T14:14:54.826Z,2.35
2023-05-20T14:15:57.724Z,2.58
2023-05-20T14:17:00.727Z,2.72
2023-05-20T14:18:03.738Z,2.08
2023-05-20T14:19:08.908Z,2.30
2023-05-20T14:20:12.576Z,2.25
2023-05-20T14:21:15.676Z,3.47
2023-05-20T14:22:20.128Z,3.25
2023-05-20T14:23:23.220Z,3.22
2023-05-20T14:24:26.421Z,3.30
2023-05-20T14:25:29.771Z,2.47
2023-05-20T14:26:34.483Z,2.58
2023-05-20T14:27:37.664Z,2.95
2023-05-20T14:28:40.645Z,2.92
2023-05-20T14:29:43.641Z,3.30
2023-05-20T14:30:46.488Z,3.50
2023-05-20T14:31:49.535Z,3.28
2023-05-20T14:32:52.431Z,3.25
2023-05-20T14:33:55.691Z,2.63
2023-05-20T14:34:58.525Z,2.58
2023-05-20T14:36:01.741Z,2.25
2023-05-20T14:37:10.123Z,3.55
2023-05-20T14:38:13.253Z,3.63
2023-05-20T14:39:16.089Z,3.35
2023-05-20T14:40:19.467Z,3.33
2023-05-20T14:41:22.677Z,3.05
2023-05-20T14:42:25.828Z,3.08
2023-05-20T14:43:29.029Z,3.63
2023-05-20T14:44:32.264Z,3.60
2023-05-20T14:45:35.114Z,2.08
2023-05-20T14:46:38.338Z,2.08
2023-05-20T14:47:41.538Z,2.40
2023-05-20T14:48:44.628Z,1.95
2023-05-20T14:49:47.592Z,1.85
2023-05-20T14:50:50.751Z,1.65
2023-05-20T14:51:53.692Z,1.90
2023-05-20T14:52:56.781Z,1.90
2023-05-20T14:53:59.770Z,2.08
2023-05-20T14:55:02.885Z,1.80
2023-05-20T14:56:06.036Z,2.55
2023-05-20T14:57:09.318Z,2.05
2023-05-20T14:58:12.355Z,2.00
2023-05-20T14:59:15.444Z,1.80
2023-05-20T15:00:18.616Z,2.33
2023-05-20T15:01:21.827Z,1.73
2023-05-20T15:02:25.099Z,1.60
2023-05-20T15:03:28.383Z,2.28
2023-05-20T15:04:31.669Z,2.25
2023-05-20T15:05:34.869Z,1.83
2023-05-20T15:06:38.670Z,1.92
2023-05-20T15:07:41.838Z,1.95
2023-05-20T15:08:44.730Z,2.33
2023-05-20T15:09:47.914Z,1.60
2023-05-20T15:10:50.959Z,1.80
2023-05-20T15:11:54.472Z,1.92
2023-05-20T15:12:57.364Z,1.90
2023-05-20T15:14:00.824Z,2.00
2023-05-20T15:15:03.931Z,1.55
2023-05-20T15:16:08.651Z,1.73
2023-05-20T15:17:11.919Z,2.10
2023-05-20T15:18:15.019Z,1.70
2023-05-20T15:19:18.067Z,1.73
2023-05-20T15:20:21.140Z,1.75
2023-05-20T15:21:24.152Z,1.85
2023-05-20T15:22:27.391Z,2.03
2023-05-20T15:23:30.353Z,1.92
2023-05-20T15:24:33.472Z,1.85
2023-05-20T15:25:36.540Z,1.65
2023-05-20T15:26:41.576Z,1.80
2023-05-20T15:27:44.434Z,1.70
2023-05-20T15:28:47.441Z,2.20
2023-05-20T15:29:50.323Z,1.67
2023-05-20T15:30:55.217Z,1.92
2023-05-20T15:31:58.470Z,2.17
2023-05-20T15:33:01.802Z,1.98
2023-05-20T15:34:04.752Z,1.88
2023-05-20T15:35:08.108Z,1.50
2023-05-20T15:36:11.110Z,1.65
2023-05-20T15:37:14.128Z,1.60
2023-05-20T15:38:17.714Z,1.88
2023-05-20T15:39:20.657Z,1.83